Time;durP1;ratioP1;P1;durP2;ratioP2;P2;SDS_P1;SDS_P2;PMS_P1;PMS_P2;Temp;Humidity;BMP_temperature;BMP_pressure;BME280_temperature;BME280_humidity;BME280_pressure;Samples;Min_cycle;Max_cycle;Signal;HPM_P1;HPM_P2
2023/01/01 00:00:05;;;;;;;43.55;30.27;;;;;;;13.53;nan;100614.50;4963993;28;20078;-86
2023/01/01 00:02:31;;;;;;;39.17;27.70;;;;;;;13.58;nan;100612.16;4963767;28;20050;-87
2023/01/01 00:04:56;;;;;;;33.40;25.13;;;;;;;13.57;nan;100613.19;4964619;28;20444;-86
2023/01/01 00:07:21;;;;;;;34.13;24.05;;;;;;;13.60;nan;100616.31;4965820;28;20547;-86
2023/01/01 00:12:32;;;;;;;32.95;24.13;;;;;;;13.58;nan;100618.31;4968790;28;20575;-86
2023/01/01 00:14:57;;;;;;;31.70;23.08;;;;;;;13.60;nan;100621.63;4979410;28;20167;-86
2023/01/01 00:17:22;;;;;;;32.40;23.08;;;;;;;13.61;nan;100619.81;4965262;28;20130;-86
2023/01/01 00:19:47;;;;;;;34.38;24.05;;;;;;;13.58;nan;100620.97;4970690;28;20042;-86
2023/01/01 00:22:13;;;;;;;30.75;21.90;;;;;;;13.58;nan;100628.13;4971880;28;20035;-86
2023/01/01 00:24:38;;;;;;;29.00;21.23;;;;;;;13.63;nan;100632.91;4988475;28;20114;-86
2023/01/01 00:27:03;;;;;;;29.90;21.25;;;;;;;13.62;nan;100632.09;4989068;28;20112;-85
2023/01/01 00:29:29;;;;;;;28.20;20.48;;;;;;;13.64;nan;100637.25;4987562;28;20027;-84
2023/01/01 00:31:55;;;;;;;32.10;20.35;;;;;;;13.65;nan;100628.28;4985566;28;20058;-85
2023/01/01 00:34:20;;;;;;;27.20;19.15;;;;;;;13.65;nan;100642.38;5002635;28;20192;-84
2023/01/01 00:36:45;;;;;;;26.30;17.70;;;;;;;13.67;nan;100628.94;4995427;28;20055;-87
2023/01/01 00:39:11;;;;;;;22.95;17.35;;;;;;;13.68;nan;100635.91;4983003;28;20051;-85
2023/01/01 00:41:36;;;;;;;22.48;15.88;;;;;;;13.70;nan;100634.72;4977519;28;20411;-86
2023/01/01 00:44:01;;;;;;;24.27;16.23;;;;;;;13.69;nan;100634.91;4974484;28;20039;-85
2023/01/01 00:46:27;;;;;;;22.13;15.55;;;;;;;13.66;nan;100629.91;4974631;28;20030;-85
2023/01/01 00:48:52;;;;;;;20.70;14.43;;;;;;;13.66;nan;100638.75;4972595;28;20129;-85
2023/01/01 00:51:17;;;;;;;21.13;13.60;;;;;;;13.64;nan;100627.44;4987188;28;20448;-86
2023/01/01 00:53:42;;;;;;;18.05;12.93;;;;;;;13.63;nan;100622.28;4971980;28;20054;-85
2023/01/01 00:56:08;;;;;;;17.60;12.32;;;;;;;13.63;nan;100633.75;4991067;28;20035;-86
2023/01/01 00:58:33;;;;;;;18.33;12.90;;;;;;;13.65;nan;100623.78;4977371;28;20791;-86
2023/01/01 01:00:59;;;;;;;19.48;12.48;;;;;;;13.66;nan;100628.13;4973001;28;20088;-85
2023/01/01 01:03:27;;;;;;;18.45;12.50;;;;;;;13.68;nan;100622.59;4973923;28;20046;-86
2023/01/01 01:05:57;;;;;;;17.52;12.65;;;;;;;13.66;nan;100622.81;4971906;28;20125;-86
2023/01/01 01:08:23;;;;;;;18.67;12.30;;;;;;;13.62;nan;100624.13;4963150;28;20036;-86
2023/01/01 01:10:51;;;;;;;19.38;12.65;;;;;;;13.65;nan;100618.47;4971192;28;20509;-86
2023/01/01 01:13:16;;;;;;;41.38;27.42;;;;;;;13.65;nan;100626.44;4972010;28;20035;-86
2023/01/01 01:15:42;;;;;;;19.52;13.25;;;;;;;13.65;nan;100620.31;4970880;28;20039;-87
2023/01/01 01:18:08;;;;;;;14.77;10.90;;;;;;;13.63;nan;100624.94;4970059;28;20054;-86
2023/01/01 01:20:35;;;;;;;17.60;11.13;;;;;;;13.59;nan;100627.97;4972670;28;20074;-86
2023/01/01 01:23:01;;;;;;;18.77;11.82;;;;;;;13.61;nan;100606.53;4971263;28;20035;-86
2023/01/01 01:25:27;;;;;;;14.82;10.63;;;;;;;13.62;nan;100615.34;4971202;28;20037;-86
2023/01/01 01:27:54;;;;;;;15.38;10.77;;;;;;;13.64;nan;100616.00;4971290;28;20031;-86
2023/01/01 01:30:19;;;;;;;13.82;10.15;;;;;;;13.62;nan;100607.38;4969251;28;20035;-86
2023/01/01 01:32:44;;;;;;;15.63;11.02;;;;;;;13.65;nan;100620.31;4971514;28;20053;-86
2023/01/01 01:35:11;;;;;;;14.95;10.27;;;;;;;13.68;nan;100627.94;4968193;28;20070;-86
2023/01/01 01:37:37;;;;;;;16.58;10.68;;;;;;;13.71;nan;100628.44;4970022;28;20059;-86
2023/01/01 01:40:03;;;;;;;14.93;10.52;;;;;;;13.75;nan;100629.75;4971271;28;20059;-86
2023/01/01 01:42:30;;;;;;;15.95;9.80;;;;;;;13.78;nan;100640.03;4968134;28;20457;-87
2023/01/01 01:45:04;;;;;;;16.75;11.27;;;;;;;13.81;nan;100642.34;4964368;28;20035;-86
2023/01/01 01:47:49;;;;;;;14.88;9.57;;;;;;;13.83;nan;100628.91;4967879;28;20033;-86
2023/01/01 01:50:30;;;;;;;16.38;10.07;;;;;;;13.84;nan;100629.72;4967324;28;20078;-86
2023/01/01 01:53:05;;;;;;;15.57;10.45;;;;;;;13.93;nan;100632.19;4970332;28;20617;-86
2023/01/01 01:55:36;;;;;;;13.10;9.27;;;;;;;13.96;nan;100636.31;4989664;28;20039;-86
2023/01/01 01:58:03;;;;;;;14.52;10.13;;;;;;;13.99;nan;100630.66;4968561;28;20038;-86
2023/01/01 02:00:29;;;;;;;13.98;9.95;;;;;;;13.95;nan;100642.66;4970161;28;20057;-86
2023/01/01 02:03:23;;;;;;;13.48;9.15;;;;;;;13.89;nan;100638.00;4969535;28;20062;-86
2023/01/01 02:05:50;;;;;;;13.45;8.88;;;;;;;13.85;nan;100637.53;4964751;28;20049;-86
2023/01/01 02:08:15;;;;;;;12.90;8.43;;;;;;;13.85;nan;100637.53;4969151;28;20568;-86
2023/01/01 02:10:41;;;;;;;13.80;8.88;;;;;;;13.89;nan;100638.00;4969743;28;20197;-86
2023/01/01 02:13:07;;;;;;;13.95;8.38;;;;;;;13.87;nan;100632.88;4969452;28;20086;-86
2023/01/01 02:15:59;;;;;;;11.25;8.25;;;;;;;13.87;nan;100637.34;4968666;28;20058;-86
2023/01/01 02:18:59;;;;;;;11.82;8.07;;;;;;;13.94;nan;100640.97;4966705;28;20054;-86
2023/01/01 02:21:34;;;;;;;12.60;8.15;;;;;;;13.95;nan;100638.16;4965811;28;20603;-86
2023/01/01 02:24:19;;;;;;;11.13;8.13;;;;;;;13.97;nan;100635.34;4979080;28;20498;-86
2023/01/01 02:27:02;;;;;;;11.88;7.85;;;;;;;13.95;nan;100632.03;4970346;28;20097;-86
2023/01/01 02:29:39;;;;;;;11.32;7.78;;;;;;;13.94;nan;100638.31;4969863;28;20045;-86
2023/01/01 02:32:11;;;;;;;11.35;7.82;;;;;;;13.85;nan;100632.22;4968043;28;20250;-86
2023/01/01 02:34:46;;;;;;;13.15;8.18;;;;;;;13.83;nan;100625.41;4964963;28;20050;-86
2023/01/01 02:37:16;;;;;;;12.10;7.55;;;;;;;13.87;nan;100637.34;4965715;28;20035;-86
2023/01/01 02:39:47;;;;;;;10.02;7.55;;;;;;;13.80;nan;100632.72;4968742;28;20038;-86
2023/01/01 02:42:14;;;;;;;14.00;7.55;;;;;;;13.84;nan;100627.06;4967769;28;20039;-86
2023/01/01 02:44:43;;;;;;;11.63;7.22;;;;;;;13.81;nan;100626.41;4958696;28;20039;-86
2023/01/01 02:47:12;;;;;;;12.20;7.53;;;;;;;13.89;nan;100622.88;4968289;28;20041;-86
2023/01/01 02:49:45;;;;;;;13.55;8.27;;;;;;;13.90;nan;100627.22;4969095;28;20114;-86
2023/01/01 02:52:47;;;;;;;11.40;7.55;;;;;;;13.95;nan;100638.16;4967319;28;20034;-86
2023/01/01 02:55:12;;;;;;;;;;;;;;;13.88;nan;100641.69;4962735;28;20404;-87
2023/01/01 02:57:49;;;;;;;10.57;6.83;;;;;;;13.84;nan;100657.13;4968959;28;19921;-86
2023/01/01 03:00:27;;;;;;;9.73;6.97;;;;;;;13.79;nan;100652.31;4966069;28;20035;-85
2023/01/01 03:03:29;;;;;;;12.07;7.63;;;;;;;13.79;nan;100662.13;4968328;28;20031;-85
2023/01/01 03:06:25;;;;;;;11.77;7.35;;;;;;;13.75;nan;100674.94;4962126;28;20046;-85
2023/01/01 03:08:50;;;;;;;11.60;7.63;;;;;;;13.72;nan;100661.16;4963276;28;20058;-85
2023/01/01 03:11:18;;;;;;;11.97;7.40;;;;;;;13.68;nan;100667.78;4969188;28;20425;-85
2023/01/01 03:14:05;;;;;;;12.85;7.38;;;;;;;13.63;nan;100662.97;4969391;28;20369;-85
2023/01/01 03:16:37;;;;;;;10.70;6.93;;;;;;;13.58;nan;100662.66;4979647;28;20166;-85
2023/01/01 03:19:11;;;;;;;13.57;7.60;;;;;;;13.62;nan;100657.84;4967064;28;20121;-85
2023/01/01 03:21:41;;;;;;;10.38;6.95;;;;;;;13.59;nan;100659.84;4968960;28;20049;-85
2023/01/01 03:24:11;;;;;;;12.15;7.07;;;;;;;13.58;nan;100667.97;4969486;28;20038;-85
2023/01/01 03:26:39;;;;;;;10.73;6.72;;;;;;;13.63;nan;100672.78;4972048;28;20042;-85
2023/01/01 03:29:05;;;;;;;11.23;6.97;;;;;;;13.61;nan;100670.31;4964433;28;20563;-84
2023/01/01 03:31:31;;;;;;;11.52;7.35;;;;;;;13.64;nan;100667.31;4967311;28;20042;-85
2023/01/01 03:34:12;;;;;;;13.45;6.53;;;;;;;13.68;nan;100667.78;4969396;28;20050;-84
2023/01/01 03:36:42;;;;;;;11.23;6.57;;;;;;;13.67;nan;100661.66;4965473;28;20043;-85
2023/01/01 03:39:14;;;;;;;10.47;6.37;;;;;;;13.65;nan;100674.25;4960617;28;20046;-84
2023/01/01 03:41:46;;;;;;;9.30;6.35;;;;;;;13.64;nan;100662.00;4961829;28;20501;-85
2023/01/01 03:44:28;;;;;;;9.60;5.75;;;;;;;13.64;nan;100661.16;4970340;28;20046;-85
2023/01/01 03:46:54;;;;;;;8.35;5.38;;;;;;;13.64;nan;100677.94;4962679;28;20032;-85
2023/01/01 03:49:20;;;;;;;9.88;5.60;;;;;;;13.71;nan;100678.09;4952639;28;20182;-85
2023/01/01 03:51:51;;;;;;;8.30;5.60;;;;;;;13.71;nan;100673.59;4960291;28;20088;-84
2023/01/01 03:54:31;;;;;;;8.20;5.35;;;;;;;13.76;nan;100676.59;4970945;28;20039;-85
2023/01/01 03:57:20;;;;;;;8.30;5.80;;;;;;;13.79;nan;100676.25;4975136;28;20039;-85
2023/01/01 04:00:03;;;;;;;10.00;5.70;;;;;;;13.86;nan;100681.72;4981848;28;20166;-86
2023/01/01 04:02:41;;;;;;;9.15;4.93;;;;;;;13.79;nan;100673.59;4965156;28;20118;-85
2023/01/01 04:05:09;;;;;;;8.45;5.05;;;;;;;13.81;nan;100684.06;4965542;28;20038;-85
2023/01/01 04:07:35;;;;;;;10.68;5.40;;;;;;;13.80;nan;100685.88;4973888;28;20039;-84
2023/01/01 04:10:15;;;;;;;7.60;4.85;;;;;;;13.79;nan;100680.72;4970544;28;20126;-85
2023/01/01 04:12:55;;;;;;;6.80;4.90;;;;;;;13.81;nan;100674.25;4973634;28;20035;-85
2023/01/01 04:15:24;;;;;;;8.30;5.28;;;;;;;13.81;nan;100673.41;4973641;28;20030;-84
2023/01/01 04:17:50;;;;;;;8.73;5.00;;;;;;;13.81;nan;100678.75;4970778;28;20042;-84
2023/01/01 04:20:16;;;;;;;9.05;5.00;;;;;;;13.84;nan;100688.19;4967762;28;20035;-85
2023/01/01 04:22:42;;;;;;;8.00;4.95;;;;;;;13.83;nan;100679.41;4979656;28;20047;-85
2023/01/01 04:25:08;;;;;;;6.63;4.80;;;;;;;13.81;nan;100676.91;4978231;28;20394;-84
2023/01/01 04:27:34;;;;;;;7.18;4.68;;;;;;;13.79;nan;100676.25;4977134;28;20038;-85
2023/01/01 04:29:59;;;;;;;7.85;4.53;;;;;;;13.81;nan;100674.25;4978536;28;20095;-85
2023/01/01 04:32:25;;;;;;;7.00;4.82;;;;;;;13.85;nan;100680.06;4973760;28;21545;-84
2023/01/01 04:34:50;;;;;;;8.13;4.90;;;;;;;13.84;nan;100681.03;4973503;28;20037;-85
2023/01/01 04:37:15;;;;;;;8.95;4.57;;;;;;;13.80;nan;100683.22;4973147;28;20101;-86
2023/01/01 04:39:41;;;;;;;7.18;4.70;;;;;;;13.81;nan;100681.41;4974235;28;20030;-84
2023/01/01 04:42:07;;;;;;;9.55;4.90;;;;;;;13.83;nan;100684.72;4973553;28;20451;-85
2023/01/01 04:44:32;;;;;;;6.68;4.05;;;;;;;13.80;nan;100693.03;4974617;28;20420;-84
2023/01/01 04:46:58;;;;;;;7.18;4.40;;;;;;;13.79;nan;100694.03;4983736;28;20023;-85
2023/01/01 04:49:23;;;;;;;8.27;4.40;;;;;;;13.78;nan;100693.19;4990977;28;20030;-85
2023/01/01 04:51:48;;;;;;;6.35;4.22;;;;;;;13.77;nan;100694.19;4972942;28;20094;-84
2023/01/01 04:54:14;;;;;;;8.63;4.40;;;;;;;13.74;nan;100702.50;4971450;28;20046;-85
2023/01/01 04:56:39;;;;;;;7.22;4.28;;;;;;;13.68;nan;100695.22;4972152;28;20776;-84
2023/01/01 04:59:04;;;;;;;7.45;4.47;;;;;;;13.71;nan;100692.22;4970706;28;20117;-85
2023/01/01 05:01:30;;;;;;;7.03;4.40;;;;;;;13.70;nan;100692.38;4969370;28;20397;-84
2023/01/01 05:03:57;;;;;;;8.88;4.53;;;;;;;13.73;nan;100700.00;4986275;28;20460;-84
2023/01/01 05:06:24;;;;;;;6.43;4.32;;;;;;;13.63;nan;100700.16;4979513;28;20039;-85
2023/01/01 05:08:51;;;;;;;6.82;4.10;;;;;;;13.66;nan;100704.31;4973498;28;20035;-85
2023/01/01 05:11:19;;;;;;;7.95;4.07;;;;;;;13.60;nan;100705.84;4972263;28;20167;-84
2023/01/01 05:13:47;;;;;;;6.80;3.85;;;;;;;13.57;nan;100714.16;4972655;28;20125;-84
2023/01/01 05:16:15;;;;;;;5.35;3.92;;;;;;;13.55;nan;100719.63;4972874;28;20055;-84
2023/01/01 05:18:42;;;;;;;8.20;4.10;;;;;;;13.57;nan;100720.28;4974854;28;20122;-84
2023/01/01 05:21:13;;;;;;;8.95;4.25;;;;;;;13.59;nan;100725.44;4963699;28;20448;-84
2023/01/01 05:23:39;;;;;;;5.75;3.50;;;;;;;13.56;nan;100726.59;4973899;28;20074;-85
2023/01/01 05:26:12;;;;;;;7.57;3.88;;;;;;;13.53;nan;100726.91;4970058;28;20071;-84
2023/01/01 05:28:38;;;;;;;6.93;3.85;;;;;;;13.52;nan;100727.09;4972388;28;20112;-85
2023/01/01 05:31:06;;;;;;;7.72;3.70;;;;;;;13.54;nan;100735.75;4971884;28;20031;-85
2023/01/01 05:33:32;;;;;;;4.88;3.65;;;;;;;13.56;nan;100739.88;4971638;28;20031;-85
2023/01/01 05:35:57;;;;;;;7.82;4.03;;;;;;;13.53;nan;100734.88;4971520;28;20046;-84
2023/01/01 05:38:22;;;;;;;9.40;3.90;;;;;;;13.54;nan;100738.41;4970022;28;20098;-85
2023/01/01 05:40:51;;;;;;;5.90;3.42;;;;;;;13.51;nan;100747.50;4967070;28;20043;-85
2023/01/01 05:43:16;;;;;;;6.10;3.45;;;;;;;13.49;nan;100738.03;4970765;28;20042;-85
2023/01/01 05:45:43;;;;;;;7.13;3.85;;;;;;;13.49;nan;100752.19;4958128;28;20035;-85
2023/01/01 05:48:08;;;;;;;5.38;3.72;;;;;;;13.44;nan;100743.03;4965716;28;20031;-85
2023/01/01 05:50:33;;;;;;;6.55;3.53;;;;;;;13.41;nan;100751.31;4966346;28;20130;-85
2023/01/01 05:52:58;;;;;;;7.88;3.80;;;;;;;13.42;nan;100745.00;4968910;28;20050;-85
2023/01/01 05:55:24;;;;;;;5.55;3.80;;;;;;;13.36;nan;100747.34;4966414;28;20042;-85
2023/01/01 05:57:49;;;;;;;7.07;4.03;;;;;;;13.28;nan;100754.47;4970887;28;20181;-84
2023/01/01 06:00:15;;;;;;;5.33;3.53;;;;;;;13.25;nan;100750.28;4970792;28;20039;-85
2023/01/01 06:02:40;;;;;;;7.78;3.65;;;;;;;13.22;nan;100769.19;4969610;28;20279;-85
2023/01/01 06:05:05;;;;;;;6.72;3.30;;;;;;;13.21;nan;100762.22;4970556;28;20402;-85
2023/01/01 06:07:31;;;;;;;4.97;3.17;;;;;;;13.17;nan;100751.09;4969471;28;20030;-85
2023/01/01 06:09:56;;;;;;;6.25;3.40;;;;;;;13.17;nan;100748.44;4970401;28;20075;-85
2023/01/01 06:12:21;;;;;;;5.63;3.70;;;;;;;13.17;nan;100744.97;4970172;28;20504;-85
2023/01/01 06:14:46;;;;;;;6.82;3.17;;;;;;;13.11;nan;100751.75;4969080;28;20574;-85
2023/01/01 06:17:12;;;;;;;8.00;3.40;;;;;;;13.11;nan;100750.94;4968933;28;20039;-85
2023/01/01 06:19:37;;;;;;;5.43;3.20;;;;;;;13.10;nan;100762.53;4968935;28;20297;-85
2023/01/01 06:22:02;;;;;;;4.80;3.40;;;;;;;13.04;nan;100757.84;4968636;28;20673;-86
2023/01/01 06:24:27;;;;;;;4.97;3.30;;;;;;;13.01;nan;100760.84;4960323;28;20134;-85
2023/01/01 06:26:53;;;;;;;5.30;3.30;;;;;;;12.98;nan;100767.31;4969396;28;20043;-85
2023/01/01 06:29:18;;;;;;;6.17;3.37;;;;;;;12.92;nan;100763.50;4969627;28;20085;-85
2023/01/01 06:31:43;;;;;;;7.40;3.45;;;;;;;12.91;nan;100769.78;4969820;28;20305;-85
2023/01/01 06:34:08;;;;;;;8.48;3.20;;;;;;;12.88;nan;100772.75;4968936;28;20511;-85
2023/01/01 06:36:34;;;;;;;5.90;3.20;;;;;;;12.85;nan;100778.41;4965775;28;20042;-85
2023/01/01 06:38:59;;;;;;;6.53;3.33;;;;;;;12.83;nan;100785.69;4970344;28;20153;-85
2023/01/01 06:41:26;;;;;;;5.25;3.42;;;;;;;12.84;nan;100789.16;4970880;28;20047;-85
2023/01/01 06:43:56;;;;;;;7.93;3.53;;;;;;;12.75;nan;100793.59;4957906;28;20047;-86
2023/01/01 06:46:27;;;;;;;5.40;2.75;;;;;;;12.65;nan;100791.06;4966926;28;20047;-85
2023/01/01 06:48:57;;;;;;;6.20;3.27;;;;;;;12.61;nan;100791.53;4970067;28;20035;-85
2023/01/01 06:51:25;;;;;;;5.40;3.10;;;;;;;12.58;nan;100786.56;4968927;28;20034;-85
2023/01/01 06:53:51;;;;;;;5.50;3.15;;;;;;;12.58;nan;100791.84;4964331;28;20035;-85
2023/01/01 06:56:18;;;;;;;5.57;3.08;;;;;;;12.53;nan;100793.16;4982375;28;20125;-86
2023/01/01 06:58:44;;;;;;;5.00;3.08;;;;;;;12.49;nan;100797.13;4963934;28;20582;-85
2023/01/01 07:01:13;;;;;;;4.50;2.83;;;;;;;12.44;nan;100799.44;4968056;28;20113;-84
2023/01/01 07:03:39;;;;;;;5.88;3.15;;;;;;;12.43;nan;100810.19;4970398;28;20041;-85
2023/01/01 07:06:06;;;;;;;4.40;3.00;;;;;;;12.42;nan;100819.97;4963528;28;20030;-85
2023/01/01 07:08:32;;;;;;;6.05;3.15;;;;;;;12.39;nan;100827.38;4973515;28;20031;-85
2023/01/01 07:10:58;;;;;;;5.35;2.95;;;;;;;12.34;nan;100830.50;4971401;28;20444;-85
2023/01/01 07:13:28;;;;;;;5.05;2.78;;;;;;;12.28;nan;100828.50;4966154;28;20178;-85
2023/01/01 07:15:54;;;;;;;6.78;3.22;;;;;;;12.20;nan;100829.25;4969717;28;20090;-85
2023/01/01 07:18:20;;;;;;;6.05;2.97;;;;;;;12.21;nan;100840.72;4964197;28;20034;-85
2023/01/01 07:20:54;;;;;;;5.30;2.72;;;;;;;12.18;nan;100831.25;4969505;28;20035;-85
2023/01/01 07:23:19;;;;;;;6.00;3.10;;;;;;;12.18;nan;100835.69;4970337;28;20043;-85
2023/01/01 07:25:48;;;;;;;4.97;3.00;;;;;;;12.17;nan;100831.41;4970400;28;20031;-85
2023/01/01 07:28:13;;;;;;;4.88;3.10;;;;;;;12.19;nan;100818.81;4970536;28;20027;-85
2023/01/01 07:30:38;;;;;;;4.90;2.78;;;;;;;12.20;nan;100820.47;4969719;28;20039;-85
2023/01/01 07:33:04;;;;;;;5.97;3.03;;;;;;;12.22;nan;100829.94;4968738;28;20049;-85
2023/01/01 07:35:29;;;;;;;5.97;2.75;;;;;;;12.22;nan;100829.09;4969079;28;20058;-85
2023/01/01 07:37:54;;;;;;;5.03;3.00;;;;;;;12.23;nan;100842.22;4962000;28;20070;-85
2023/01/01 07:40:20;;;;;;;6.38;2.97;;;;;;;12.26;nan;100841.91;4969366;28;20388;-85
2023/01/01 07:42:45;;;;;;;4.55;2.83;;;;;;;12.26;nan;100846.38;4971243;28;20049;-86
2023/01/01 07:45:12;;;;;;;6.40;3.08;;;;;;;12.29;nan;100859.31;4972697;28;20461;-86
2023/01/01 07:47:37;;;;;;;5.85;2.90;;;;;;;12.31;nan;100854.69;4957385;28;20135;-86
2023/01/01 07:50:03;;;;;;;5.47;3.05;;;;;;;12.31;nan;100865.31;4970962;28;20505;-86
2023/01/01 07:52:28;;;;;;;4.07;2.63;;;;;;;12.30;nan;100869.78;4969622;28;20120;-86
2023/01/01 07:54:53;;;;;;;5.03;2.80;;;;;;;12.35;nan;100871.97;4963235;28;20281;-85
2023/01/01 07:57:19;;;;;;;5.90;2.88;;;;;;;12.35;nan;100879.06;4990206;28;20043;-85
2023/01/01 07:59:44;;;;;;;5.47;2.83;;;;;;;12.40;nan;100882.13;4978321;28;20047;-85
2023/01/01 08:02:14;;;;;;;5.60;2.90;;;;;;;12.47;nan;100889.28;4988923;28;20035;-85
2023/01/01 08:04:39;;;;;;;4.88;2.70;;;;;;;12.51;nan;100879.19;4984653;28;20042;-85
2023/01/01 08:07:05;;;;;;;5.63;3.07;;;;;;;12.59;nan;100889.88;4979177;28;20035;-85
2023/01/01 08:09:30;;;;;;;5.18;2.90;;;;;;;12.71;nan;100893.09;4981881;28;20644;-84
2023/01/01 08:11:57;;;;;;;6.45;3.05;;;;;;;12.82;nan;100892.81;4972338;28;20081;-86
2023/01/01 08:14:24;;;;;;;6.15;2.72;;;;;;;12.86;nan;100891.50;4971544;28;20047;-86
2023/01/01 08:16:49;;;;;;;8.20;2.58;;;;;;;12.92;nan;100885.59;4970766;28;20050;-86
2023/01/01 08:19:15;;;;;;;7.20;2.90;;;;;;;13.01;nan;100875.00;4968038;28;20040;-86
2023/01/01 08:21:40;;;;;;;5.60;2.80;;;;;;;13.03;nan;100870.34;4987455;28;20031;-86
2023/01/01 08:24:05;;;;;;;4.72;2.80;;;;;;;13.11;nan;100881.03;4973019;28;20456;-86
2023/01/01 08:26:34;;;;;;;5.28;2.50;;;;;;;13.19;nan;100875.75;4969364;28;20099;-86
2023/01/01 08:29:03;;;;;;;5.70;2.40;;;;;;;13.26;nan;100874.09;4970636;28;20039;-86
2023/01/01 08:31:29;;;;;;;6.20;3.00;;;;;;;13.35;nan;100873.19;4963945;28;20066;-86
2023/01/01 08:33:54;;;;;;;4.80;2.17;;;;;;;13.40;nan;100882.50;4978469;28;20039;-85
2023/01/01 08:36:19;;;;;;;6.63;2.78;;;;;;;13.48;nan;100872.69;4990810;28;20042;-86
2023/01/01 08:38:45;;;;;;;5.30;2.55;;;;;;;13.51;nan;100867.06;4986584;28;20046;-86
2023/01/01 08:41:10;;;;;;;6.20;2.67;;;;;;;13.63;nan;100866.75;4977588;28;20054;-86
2023/01/01 08:43:36;;;;;;;4.32;2.40;;;;;;;13.67;nan;100878.72;4979408;28;20121;-86
2023/01/01 08:46:01;;;;;;;4.53;2.63;;;;;;;13.72;nan;100879.88;4975405;28;20033;-85
2023/01/01 08:48:27;;;;;;;7.55;2.70;;;;;;;13.75;nan;100881.38;4972697;28;20046;-85
2023/01/01 08:50:53;;;;;;;5.93;2.33;;;;;;;13.81;nan;100889.53;4967229;28;20050;-85
2023/01/01 08:53:19;;;;;;;5.47;2.75;;;;;;;13.84;nan;100892.88;4971414;28;20117;-84
2023/01/01 08:55:44;;;;;;;5.35;2.75;;;;;;;13.88;nan;100892.38;4974425;28;20058;-85
2023/01/01 08:58:09;;;;;;;5.35;2.45;;;;;;;13.97;nan;100890.56;4971189;28;20042;-84
2023/01/01 09:00:34;;;;;;;5.25;2.80;;;;;;;14.03;nan;100903.19;4971786;28;20038;-85
2023/01/01 09:03:00;;;;;;;5.38;2.30;;;;;;;14.06;nan;100905.50;4971294;28;20039;-85
2023/01/01 09:05:25;;;;;;;4.78;2.63;;;;;;;14.12;nan;100899.53;4970601;28;20034;-85
2023/01/01 09:07:50;;;;;;;6.80;2.40;;;;;;;14.16;nan;100894.75;4971542;28;20046;-85
2023/01/01 09:10:16;;;;;;;4.20;2.50;;;;;;;14.18;nan;100909.53;4969404;28;20047;-85
2023/01/01 09:12:41;;;;;;;5.20;2.80;;;;;;;14.27;nan;100912.19;4976582;28;20047;-85
2023/01/01 09:15:14;;;;;;;5.55;2.40;;;;;;;14.27;nan;100907.69;4972185;28;20030;-85
2023/01/01 09:17:40;;;;;;;5.35;2.60;;;;;;;14.27;nan;100920.16;4964504;28;20058;-85
2023/01/01 09:20:05;;;;;;;4.70;2.30;;;;;;;14.29;nan;100931.47;4968640;28;20043;-85
2023/01/01 09:22:32;;;;;;;4.38;2.33;;;;;;;14.28;nan;100940.44;4969350;28;20039;-85
2023/01/01 09:24:58;;;;;;;4.03;2.35;;;;;;;14.34;nan;100939.78;4971268;28;20035;-84
2023/01/01 09:27:23;;;;;;;5.28;2.50;;;;;;;14.36;nan;100946.59;4970559;28;20538;-85
2023/01/01 09:29:48;;;;;;;7.95;2.70;;;;;;;14.38;nan;100949.91;4969729;28;20039;-85
2023/01/01 09:32:13;;;;;;;8.65;2.85;;;;;;;14.46;nan;100943.75;4975723;28;20452;-85
2023/01/01 09:34:39;;;;;;;7.15;3.05;;;;;;;14.53;nan;100950.06;4963180;28;20039;-85
2023/01/01 09:37:04;;;;;;;7.57;2.72;;;;;;;14.56;nan;100957.78;4970202;28;20042;-85
2023/01/01 09:39:29;;;;;;;4.70;2.45;;;;;;;14.60;nan;100961.75;4965500;28;20035;-85
2023/01/01 09:42:06;;;;;;;5.25;2.88;;;;;;;14.61;nan;100965.22;4976358;28;20046;-85
2023/01/01 09:45:00;;;;;;;4.97;3.00;;;;;;;14.75;nan;100964.56;4968342;28;20063;-86
2023/01/01 09:47:33;;;;;;;5.68;2.47;;;;;;;14.82;nan;100959.41;4968723;28;20110;-85
2023/01/01 09:50:11;;;;;;;5.10;2.58;;;;;;;14.94;nan;100963.38;4972458;28;20042;-85
2023/01/01 09:52:46;;;;;;;6.07;2.60;;;;;;;15.04;nan;100965.84;4969232;28;20500;-85
2023/01/01 09:55:20;;;;;;;7.57;3.00;;;;;;;15.11;nan;100966.84;4970090;28;20125;-85
2023/01/01 09:57:45;;;;;;;3.97;2.40;;;;;;;15.15;nan;100959.34;4970438;28;20047;-85
2023/01/01 10:00:16;;;;;;;6.38;2.47;;;;;;;15.22;nan;100962.97;4969302;28;20519;-86
2023/01/01 10:03:02;;;;;;;4.93;2.22;;;;;;;15.20;nan;100955.13;4967861;28;20042;-85
2023/01/01 10:05:55;;;;;;;5.03;3.00;;;;;;;15.22;nan;100947.00;4962897;28;20051;-85
2023/01/01 10:08:30;;;;;;;8.13;2.88;;;;;;;15.22;nan;100947.00;4957543;28;20122;-86
2023/01/01 10:11:08;;;;;;;6.57;2.70;;;;;;;15.25;nan;100943.97;4970797;28;20046;-85
2023/01/01 10:13:39;;;;;;;5.15;2.33;;;;;;;15.28;nan;100946.31;4984502;28;20723;-85
2023/01/01 10:16:36;;;;;;;4.47;2.47;;;;;;;15.29;nan;100940.78;4967074;28;20118;-85
2023/01/01 10:19:18;;;;;;;4.57;2.45;;;;;;;15.28;nan;100943.66;4965781;28;20073;-85
2023/01/01 10:21:45;;;;;;;5.45;2.10;;;;;;;15.30;nan;100949.59;4965501;28;20035;-85
2023/01/01 10:24:36;;;;;;;6.20;2.25;;;;;;;15.35;nan;100935.78;4970357;28;20101;-86
2023/01/01 10:27:03;;;;;;;5.93;2.10;;;;;;;15.37;nan;100934.59;4970278;28;20058;-85
2023/01/01 10:29:44;;;;;;;6.40;2.50;;;;;;;15.47;nan;100932.56;4969257;28;20035;-85
2023/01/01 10:32:19;;;;;;;4.22;2.17;;;;;;;15.50;nan;100936.72;4966349;28;20038;-86
2023/01/01 10:34:45;;;;;;;5.70;2.42;;;;;;;15.58;nan;100928.66;4964202;28;20595;-85
2023/01/01 10:37:12;;;;;;;7.10;2.50;;;;;;;15.62;nan;100926.50;4966914;28;20269;-85
2023/01/01 10:39:38;;;;;;;6.25;2.63;;;;;;;15.63;nan;100931.63;4967740;28;20039;-85
2023/01/01 10:42:03;;;;;;;4.38;2.30;;;;;;;15.67;nan;100932.94;4969763;28;20126;-86
2023/01/01 10:44:32;;;;;;;7.47;3.13;;;;;;;15.67;nan;100930.28;4969582;28;20122;-85
2023/01/01 10:47:03;;;;;;;5.18;2.42;;;;;;;15.69;nan;100919.47;4970693;28;20090;-86
2023/01/01 10:49:29;;;;;;;5.35;2.40;;;;;;;15.72;nan;100924.47;4979383;28;20042;-85
2023/01/01 10:51:54;;;;;;;7.60;2.72;;;;;;;15.78;nan;100915.78;4972138;28;20039;-85
2023/01/01 10:54:38;;;;;;;5.93;2.28;;;;;;;15.84;nan;100920.38;4969301;28;20042;-85
2023/01/01 10:57:27;;;;;;;6.53;2.67;;;;;;;15.93;nan;100907.84;4967787;28;20031;-85
2023/01/01 10:59:53;;;;;;;6.43;2.28;;;;;;;15.97;nan;100909.16;4966241;28;20043;-85
2023/01/01 11:02:26;;;;;;;5.63;2.17;;;;;;;15.98;nan;100900.13;4962506;28;20054;-85
2023/01/01 11:05:12;;;;;;;6.32;2.65;;;;;;;15.95;nan;100905.81;4959129;28;20054;-84
2023/01/01 11:07:41;;;;;;;5.63;2.13;;;;;;;15.95;nan;100919.16;4951556;28;20047;-84
2023/01/01 11:10:14;;;;;;;5.45;2.33;;;;;;;15.99;nan;100911.63;4971318;28;20062;-84
2023/01/01 11:12:40;;;;;;;6.53;1.98;;;;;;;15.99;nan;100901.78;4971470;28;20439;-85
2023/01/01 11:15:06;;;;;;;5.40;2.50;;;;;;;15.97;nan;100902.97;4970666;28;20035;-85
2023/01/01 11:17:35;;;;;;;8.85;2.25;;;;;;;15.97;nan;100909.16;4970998;28;20042;-85
2023/01/01 11:20:02;;;;;;;5.25;2.60;;;;;;;15.96;nan;100903.97;4970812;28;20127;-85
2023/01/01 11:22:41;;;;;;;7.15;2.25;;;;;;;15.95;nan;100907.66;4973202;28;20037;-85
2023/01/01 11:25:21;;;;;;;4.95;2.15;;;;;;;15.95;nan;100902.34;4962924;28;20117;-85
2023/01/01 11:27:48;;;;;;;4.88;2.20;;;;;;;15.92;nan;100908.81;4970822;28;20034;-84
2023/01/01 11:30:19;;;;;;;3.65;2.10;;;;;;;15.87;nan;100904.06;4970988;28;20042;-86
2023/01/01 11:32:45;;;;;;;6.60;2.38;;;;;;;15.81;nan;100896.75;4971281;28;20043;-86
2023/01/01 11:35:19;;;;;;;5.28;2.22;;;;;;;15.75;nan;100889.44;4969546;28;20046;-86
2023/01/01 11:37:45;;;;;;;3.40;2.10;;;;;;;15.71;nan;100894.31;4971551;28;20090;-86
2023/01/01 11:40:24;;;;;;;5.13;2.30;;;;;;;15.65;nan;100889.63;4967589;28;20035;-86
2023/01/01 11:42:55;;;;;;;8.50;2.50;;;;;;;15.61;nan;100876.84;4966908;28;20454;-86
2023/01/01 11:45:27;;;;;;;3.80;2.13;;;;;;;15.56;nan;100882.69;4967010;28;20086;-85
2023/01/01 11:48:01;;;;;;;5.80;2.58;;;;;;;15.60;nan;100877.84;4970541;28;20094;-86
2023/01/01 11:50:34;;;;;;;4.20;1.98;;;;;;;15.56;nan;100874.69;4971086;28;20595;-86